sensor_id;sensor_type;location;lat;lon;timestamp;temperature;humidity
20035;DHT22;10178;48.034;9.800;2023-07-31T00:00:23;20.00;99.90
20035;DHT22;10178;48.034;9.800;2023-07-31T00:02:49;20.00;99.90
20035;DHT22;10178;48.034;9.800;2023-07-31T00:05:15;18.90;99.90
20035;DHT22;10178;48.034;9.800;2023-07-31T00:07:41;19.00;99.90
20035;DHT22;10178;48.034;9.800;2023-07-31T00:10:07;19.40;99.90
20035;DHT22;10178;48.034;9.800;2023-07-31T00:12:32;19.60;99.90
20035;DHT22;10178;48.034;9.800;2023-07-31T00:14:58;19.80;99.90
20035;DHT22;10178;48.034;9.800;2023-07-31T00:17:24;19.90;99.90
20035;DHT22;10178;48.034;9.800;2023-07-31T00:19:49;20.00;99.90
20035;DHT22;10178;48.034;9.800;2023-07-31T00:22:16;20.00;99.90
20035;DHT22;10178;48.034;9.800;2023-07-31T00:24:41;20.00;99.90
20035;DHT22;10178;48.034;9.800;2023-07-31T00:27:07;20.00;99.90
20035;DHT22;10178;48.034;9.800;2023-07-31T00:29:32;20.00;99.90
20035;DHT22;10178;48.034;9.800;2023-07-31T00:31:58;20.00;99.90
20035;DHT22;10178;48.034;9.800;2023-07-31T00:34:24;20.00;99.90
20035;DHT22;10178;48.034;9.800;2023-07-31T00:36:49;19.90;99.90
20035;DHT22;10178;48.034;9.800;2023-07-31T00:39:15;19.90;99.90
20035;DHT22;10178;48.034;9.800;2023-07-31T00:41:40;19.80;99.90
20035;DHT22;10178;48.034;9.800;2023-07-31T00:44:06;19.80;99.90
20035;DHT22;10178;48.034;9.800;2023-07-31T00:46:31;19.80;99.90
20035;DHT22;10178;48.034;9.800;2023-07-31T00:48:57;19.80;99.90
20035;DHT22;10178;48.034;9.800;2023-07-31T00:51:23;19.80;99.90
20035;DHT22;10178;48.034;9.800;2023-07-31T00:53:49;19.70;99.90
20035;DHT22;10178;48.034;9.800;2023-07-31T00:56:15;19.70;99.90
20035;DHT22;10178;48.034;9.800;2023-07-31T00:58:41;19.70;99.90
20035;DHT22;10178;48.034;9.800;2023-07-31T01:01:07;19.70;99.90
20035;DHT22;10178;48.034;9.800;2023-07-31T01:03:32;19.60;99.90
20035;DHT22;10178;48.034;9.800;2023-07-31T01:09:03;19.60;99.90
20035;DHT22;10178;48.034;9.800;2023-07-31T01:11:34;19.70;99.90
20035;DHT22;10178;48.034;9.800;2023-07-31T01:14:01;19.60;99.90
20035;DHT22;10178;48.034;9.800;2023-07-31T01:16:27;19.70;99.90
20035;DHT22;10178;48.034;9.800;2023-07-31T01:18:52;19.60;99.90
20035;DHT22;10178;48.034;9.800;2023-07-31T01:26:21;19.60;99.90
20035;DHT22;10178;48.034;9.800;2023-07-31T01:31:22;19.60;99.90
20035;DHT22;10178;48.034;9.800;2023-07-31T01:33:50;19.50;99.90
20035;DHT22;10178;48.034;9.800;2023-07-31T01:36:16;19.50;99.90
20035;DHT22;10178;48.034;9.800;2023-07-31T01:38:42;19.50;99.90
20035;DHT22;10178;48.034;9.800;2023-07-31T01:41:08;19.40;99.90
20035;DHT22;10178;48.034;9.800;2023-07-31T01:43:33;19.40;99.90
20035;DHT22;10178;48.034;9.800;2023-07-31T01:45:59;19.40;99.90
20035;DHT22;10178;48.034;9.800;2023-07-31T01:48:24;19.40;99.90
20035;DHT22;10178;48.034;9.800;2023-07-31T01:50:50;19.30;99.90
20035;DHT22;10178;48.034;9.800;2023-07-31T01:53:16;19.40;99.90
20035;DHT22;10178;48.034;9.800;2023-07-31T01:55:41;19.40;99.90
20035;DHT22;10178;48.034;9.800;2023-07-31T01:58:07;19.30;99.90
20035;DHT22;10178;48.034;9.800;2023-07-31T02:00:32;19.30;99.90
20035;DHT22;10178;48.034;9.800;2023-07-31T02:02:59;19.30;99.90
20035;DHT22;10178;48.034;9.800;2023-07-31T02:05:25;19.30;99.90
20035;DHT22;10178;48.034;9.800;2023-07-31T02:07:50;19.20;99.90
20035;DHT22;10178;48.034;9.800;2023-07-31T02:10:16;19.20;99.90
20035;DHT22;10178;48.034;9.800;2023-07-31T02:12:42;19.20;99.90
20035;DHT22;10178;48.034;9.800;2023-07-31T02:15:08;19.20;99.90
20035;DHT22;10178;48.034;9.800;2023-07-31T02:17:33;19.20;99.90
20035;DHT22;10178;48.034;9.800;2023-07-31T02:19:59;19.10;99.90
20035;DHT22;10178;48.034;9.800;2023-07-31T02:22:25;19.10;99.90
20035;DHT22;10178;48.034;9.800;2023-07-31T02:24:50;18.90;99.90
20035;DHT22;10178;48.034;9.800;2023-07-31T02:27:16;18.50;99.90
20035;DHT22;10178;48.034;9.800;2023-07-31T02:29:42;18.60;99.90
20035;DHT22;10178;48.034;9.800;2023-07-31T02:32:07;18.80;99.90
20035;DHT22;10178;48.034;9.800;2023-07-31T02:34:33;18.80;99.90
20035;DHT22;10178;48.034;9.800;2023-07-31T02:36:58;18.90;99.90
20035;DHT22;10178;48.034;9.800;2023-07-31T02:39:24;18.90;99.90
20035;DHT22;10178;48.034;9.800;2023-07-31T02:41:50;17.50;99.90
20035;DHT22;10178;48.034;9.800;2023-07-31T02:44:15;16.40;99.90
20035;DHT22;10178;48.034;9.800;2023-07-31T02:46:41;15.60;99.90
20035;DHT22;10178;48.034;9.800;2023-07-31T02:49:06;14.90;99.90
20035;DHT22;10178;48.034;9.800;2023-07-31T02:51:32;15.50;99.90
20035;DHT22;10178;48.034;9.800;2023-07-31T02:53:57;16.30;99.90
20035;DHT22;10178;48.034;9.800;2023-07-31T02:56:23;17.30;99.90
20035;DHT22;10178;48.034;9.800;2023-07-31T02:58:49;17.80;99.90
20035;DHT22;10178;48.034;9.800;2023-07-31T03:01:14;18.20;99.90
20035;DHT22;10178;48.034;9.800;2023-07-31T03:03:41;18.40;99.90
20035;DHT22;10178;48.034;9.800;2023-07-31T03:06:07;18.60;99.90
20035;DHT22;10178;48.034;9.800;2023-07-31T03:08:33;18.60;99.90
20035;DHT22;10178;48.034;9.800;2023-07-31T03:10:58;18.70;99.90
20035;DHT22;10178;48.034;9.800;2023-07-31T03:13:24;18.70;99.90
20035;DHT22;10178;48.034;9.800;2023-07-31T03:15:50;18.70;99.90
20035;DHT22;10178;48.034;9.800;2023-07-31T03:18:16;18.70;99.90
20035;DHT22;10178;48.034;9.800;2023-07-31T03:20:44;18.80;99.90
20035;DHT22;10178;48.034;9.800;2023-07-31T03:23:10;18.80;99.90
20035;DHT22;10178;48.034;9.800;2023-07-31T03:25:36;18.80;99.90
20035;DHT22;10178;48.034;9.800;2023-07-31T03:28:01;18.80;99.90
20035;DHT22;10178;48.034;9.800;2023-07-31T03:30:27;18.70;99.90
20035;DHT22;10178;48.034;9.800;2023-07-31T03:32:53;18.70;99.90
20035;DHT22;10178;48.034;9.800;2023-07-31T03:35:18;18.70;99.90
20035;DHT22;10178;48.034;9.800;2023-07-31T03:37:44;18.70;99.90
20035;DHT22;10178;48.034;9.800;2023-07-31T03:40:10;18.70;99.90
20035;DHT22;10178;48.034;9.800;2023-07-31T03:42:36;18.70;99.90
20035;DHT22;10178;48.034;9.800;2023-07-31T03:45:01;18.70;99.90
20035;DHT22;10178;48.034;9.800;2023-07-31T03:47:27;18.70;99.90
20035;DHT22;10178;48.034;9.800;2023-07-31T03:49:52;18.70;99.90
20035;DHT22;10178;48.034;9.800;2023-07-31T03:52:18;18.70;99.90
20035;DHT22;10178;48.034;9.800;2023-07-31T03:54:44;18.60;99.90
20035;DHT22;10178;48.034;9.800;2023-07-31T03:57:12;18.60;99.90
20035;DHT22;10178;48.034;9.800;2023-07-31T03:59:37;18.30;99.90
20035;DHT22;10178;48.034;9.800;2023-07-31T04:02:04;18.10;99.90
20035;DHT22;10178;48.034;9.800;2023-07-31T04:04:30;18.10;99.90
20035;DHT22;10178;48.034;9.800;2023-07-31T04:06:55;18.10;99.90
20035;DHT22;10178;48.034;9.800;2023-07-31T04:09:21;18.10;99.90
20035;DHT22;10178;48.034;9.800;2023-07-31T04:11:47;18.20;99.90
20035;DHT22;10178;48.034;9.800;2023-07-31T04:14:12;18.20;99.90
20035;DHT22;10178;48.034;9.800;2023-07-31T04:16:38;18.30;99.90
20035;DHT22;10178;48.034;9.800;2023-07-31T04:19:03;18.30;99.90
20035;DHT22;10178;48.034;9.800;2023-07-31T04:21:29;18.30;99.90
20035;DHT22;10178;48.034;9.800;2023-07-31T04:23:55;18.30;99.90
20035;DHT22;10178;48.034;9.800;2023-07-31T04:26:21;18.30;99.90
20035;DHT22;10178;48.034;9.800;2023-07-31T04:28:47;18.10;99.90
20035;DHT22;10178;48.034;9.800;2023-07-31T04:31:13;17.60;99.90
20035;DHT22;10178;48.034;9.800;2023-07-31T04:33:38;17.00;99.90
20035;DHT22;10178;48.034;9.800;2023-07-31T04:36:05;16.30;99.90
20035;DHT22;10178;48.034;9.800;2023-07-31T04:38:30;16.00;99.90
20035;DHT22;10178;48.034;9.800;2023-07-31T04:40:56;16.50;99.90
20035;DHT22;10178;48.034;9.800;2023-07-31T04:43:22;16.90;99.90
20035;DHT22;10178;48.034;9.800;2023-07-31T04:45:47;17.00;99.90
20035;DHT22;10178;48.034;9.800;2023-07-31T04:48:14;17.10;99.90
20035;DHT22;10178;48.034;9.800;2023-07-31T04:50:39;16.50;99.90
20035;DHT22;10178;48.034;9.800;2023-07-31T04:53:05;16.10;99.90
20035;DHT22;10178;48.034;9.800;2023-07-31T04:55:31;16.10;99.90
20035;DHT22;10178;48.034;9.800;2023-07-31T04:57:58;16.40;99.90
20035;DHT22;10178;48.034;9.800;2023-07-31T05:00:24;17.00;99.90
20035;DHT22;10178;48.034;9.800;2023-07-31T05:02:49;17.40;99.90
20035;DHT22;10178;48.034;9.800;2023-07-31T05:05:15;17.70;99.90
20035;DHT22;10178;48.034;9.800;2023-07-31T05:07:41;17.80;99.90
20035;DHT22;10178;48.034;9.800;2023-07-31T05:10:06;17.90;99.90
20035;DHT22;10178;48.034;9.800;2023-07-31T05:12:32;17.90;99.90
20035;DHT22;10178;48.034;9.800;2023-07-31T05:14:58;17.80;99.90
20035;DHT22;10178;48.034;9.800;2023-07-31T05:17:23;17.90;99.90
20035;DHT22;10178;48.034;9.800;2023-07-31T05:19:49;18.10;99.90
20035;DHT22;10178;48.034;9.800;2023-07-31T05:22:14;18.10;99.90
20035;DHT22;10178;48.034;9.800;2023-07-31T05:24:40;18.20;99.90
20035;DHT22;10178;48.034;9.800;2023-07-31T05:27:06;18.20;99.90
20035;DHT22;10178;48.034;9.800;2023-07-31T05:29:31;18.20;99.90
20035;DHT22;10178;48.034;9.800;2023-07-31T05:31:57;18.30;99.90
20035;DHT22;10178;48.034;9.800;2023-07-31T05:34:23;18.20;99.90
20035;DHT22;10178;48.034;9.800;2023-07-31T05:36:48;18.20;99.90
20035;DHT22;10178;48.034;9.800;2023-07-31T05:39:14;18.30;99.90
20035;DHT22;10178;48.034;9.800;2023-07-31T05:41:39;18.30;99.90
20035;DHT22;10178;48.034;9.800;2023-07-31T05:44:05;18.40;99.90
20035;DHT22;10178;48.034;9.800;2023-07-31T05:46:31;18.40;99.90
20035;DHT22;10178;48.034;9.800;2023-07-31T05:48:56;18.50;99.90
20035;DHT22;10178;48.034;9.800;2023-07-31T05:51:22;18.40;99.90
20035;DHT22;10178;48.034;9.800;2023-07-31T05:53:48;18.50;99.90
20035;DHT22;10178;48.034;9.800;2023-07-31T05:56:13;18.50;99.90
20035;DHT22;10178;48.034;9.800;2023-07-31T05:58:39;18.30;99.90
20035;DHT22;10178;48.034;9.800;2023-07-31T06:01:04;18.40;99.90
20035;DHT22;10178;48.034;9.800;2023-07-31T06:03:30;18.10;99.90
20035;DHT22;10178;48.034;9.800;2023-07-31T06:05:56;18.20;99.90
20035;DHT22;10178;48.034;9.800;2023-07-31T06:08:21;18.50;99.90
20035;DHT22;10178;48.034;9.800;2023-07-31T06:10:47;18.60;99.90
20035;DHT22;10178;48.034;9.800;2023-07-31T06:13:12;18.80;99.90
20035;DHT22;10178;48.034;9.800;2023-07-31T06:15:38;18.90;99.90
20035;DHT22;10178;48.034;9.800;2023-07-31T06:18:04;18.90;99.90
20035;DHT22;10178;48.034;9.800;2023-07-31T06:20:33;18.90;99.90
20035;DHT22;10178;48.034;9.800;2023-07-31T06:22:59;18.50;99.90
20035;DHT22;10178;48.034;9.800;2023-07-31T06:25:25;18.60;99.90
20035;DHT22;10178;48.034;9.800;2023-07-31T06:27:51;18.80;99.90
20035;DHT22;10178;48.034;9.800;2023-07-31T06:30:16;18.90;99.90
20035;DHT22;10178;48.034;9.800;2023-07-31T06:32:42;19.10;99.90
20035;DHT22;10178;48.034;9.800;2023-07-31T06:35:08;19.10;99.90
20035;DHT22;10178;48.034;9.800;2023-07-31T06:37:34;19.30;99.90
20035;DHT22;10178;48.034;9.800;2023-07-31T06:39:59;19.40;99.90
20035;DHT22;10178;48.034;9.800;2023-07-31T06:42:25;18.80;99.90
20035;DHT22;10178;48.034;9.800;2023-07-31T06:44:51;18.70;99.90
20035;DHT22;10178;48.034;9.800;2023-07-31T06:47:16;18.70;99.90
20035;DHT22;10178;48.034;9.800;2023-07-31T06:49:42;18.60;99.90
20035;DHT22;10178;48.034;9.800;2023-07-31T06:52:07;18.70;99.90
20035;DHT22;10178;48.034;9.800;2023-07-31T06:54:33;18.50;99.90
20035;DHT22;10178;48.034;9.800;2023-07-31T06:56:59;18.50;99.90
20035;DHT22;10178;48.034;9.800;2023-07-31T06:59:24;18.50;99.90
20035;DHT22;10178;48.034;9.800;2023-07-31T07:01:50;18.60;99.90
20035;DHT22;10178;48.034;9.800;2023-07-31T07:04:15;18.50;99.90
20035;DHT22;10178;48.034;9.800;2023-07-31T07:06:41;18.40;99.90
20035;DHT22;10178;48.034;9.800;2023-07-31T07:09:07;18.70;99.90
20035;DHT22;10178;48.034;9.800;2023-07-31T07:11:33;18.50;99.90
20035;DHT22;10178;48.034;9.800;2023-07-31T07:13:59;18.50;99.90
20035;DHT22;10178;48.034;9.800;2023-07-31T07:16:28;18.70;99.90
20035;DHT22;10178;48.034;9.800;2023-07-31T07:18:54;18.70;99.90
20035;DHT22;10178;48.034;9.800;2023-07-31T07:21:20;18.80;99.90
20035;DHT22;10178;48.034;9.800;2023-07-31T07:23:45;18.70;99.90
20035;DHT22;10178;48.034;9.800;2023-07-31T07:26:11;18.70;99.90
20035;DHT22;10178;48.034;9.800;2023-07-31T07:28:36;18.80;99.90
20035;DHT22;10178;48.034;9.800;2023-07-31T07:31:03;18.80;99.90
20035;DHT22;10178;48.034;9.800;2023-07-31T07:33:28;18.50;99.90
20035;DHT22;10178;48.034;9.800;2023-07-31T07:35:54;18.20;99.90
20035;DHT22;10178;48.034;9.800;2023-07-31T07:38:20;18.30;99.90
20035;DHT22;10178;48.034;9.800;2023-07-31T07:40:46;18.30;99.90
20035;DHT22;10178;48.034;9.800;2023-07-31T07:43:16;18.50;99.90
20035;DHT22;10178;48.034;9.800;2023-07-31T07:45:41;18.60;99.90
20035;DHT22;10178;48.034;9.800;2023-07-31T07:48:07;18.60;99.90
20035;DHT22;10178;48.034;9.800;2023-07-31T07:50:32;18.40;99.90
20035;DHT22;10178;48.034;9.800;2023-07-31T07:52:58;18.50;99.90
20035;DHT22;10178;48.034;9.800;2023-07-31T07:55:24;18.40;99.90
20035;DHT22;10178;48.034;9.800;2023-07-31T07:57:49;18.20;99.90
20035;DHT22;10178;48.034;9.800;2023-07-31T08:00:16;17.80;99.90
20035;DHT22;10178;48.034;9.800;2023-07-31T08:02:42;17.80;99.90
20035;DHT22;10178;48.034;9.800;2023-07-31T08:05:08;18.10;99.90
20035;DHT22;10178;48.034;9.800;2023-07-31T08:07:34;18.20;99.90
20035;DHT22;10178;48.034;9.800;2023-07-31T08:10:00;18.50;99.90
20035;DHT22;10178;48.034;9.800;2023-07-31T08:12:25;18.50;99.90
20035;DHT22;10178;48.034;9.800;2023-07-31T08:14:51;18.80;99.90
20035;DHT22;10178;48.034;9.800;2023-07-31T08:17:17;19.10;99.90
20035;DHT22;10178;48.034;9.800;2023-07-31T08:19:43;19.20;99.90
20035;DHT22;10178;48.034;9.800;2023-07-31T08:22:09;19.20;99.90
20035;DHT22;10178;48.034;9.800;2023-07-31T08:24:35;19.10;99.90
20035;DHT22;10178;48.034;9.800;2023-07-31T08:27:00;19.20;99.90
20035;DHT22;10178;48.034;9.800;2023-07-31T08:29:26;19.30;99.90
20035;DHT22;10178;48.034;9.800;2023-07-31T08:31:51;19.00;99.90
20035;DHT22;10178;48.034;9.800;2023-07-31T08:34:17;18.80;99.90
20035;DHT22;10178;48.034;9.800;2023-07-31T08:36:43;18.80;99.90
20035;DHT22;10178;48.034;9.800;2023-07-31T08:39:08;18.80;99.90
20035;DHT22;10178;48.034;9.800;2023-07-31T08:41:38;19.10;99.90
20035;DHT22;10178;48.034;9.800;2023-07-31T08:44:07;19.50;99.90
20035;DHT22;10178;48.034;9.800;2023-07-31T08:46:33;19.50;99.90
20035;DHT22;10178;48.034;9.800;2023-07-31T08:49:00;19.90;99.90
20035;DHT22;10178;48.034;9.800;2023-07-31T08:51:28;19.80;99.90
20035;DHT22;10178;48.034;9.800;2023-07-31T08:53:55;19.90;99.90
20035;DHT22;10178;48.034;9.800;2023-07-31T08:56:20;19.90;99.90
20035;DHT22;10178;48.034;9.800;2023-07-31T08:58:47;19.90;99.90
20035;DHT22;10178;48.034;9.800;2023-07-31T09:01:14;20.00;99.90
20035;DHT22;10178;48.034;9.800;2023-07-31T09:03:40;20.20;99.90
20035;DHT22;10178;48.034;9.800;2023-07-31T09:06:07;20.40;99.90
20035;DHT22;10178;48.034;9.800;2023-07-31T09:08:33;20.50;99.90
20035;DHT22;10178;48.034;9.800;2023-07-31T09:11:00;20.80;99.90
20035;DHT22;10178;48.034;9.800;2023-07-31T09:13:31;21.00;99.90
20035;DHT22;10178;48.034;9.800;2023-07-31T09:15:56;21.10;99.90
20035;DHT22;10178;48.034;9.800;2023-07-31T09:18:22;21.40;99.90
20035;DHT22;10178;48.034;9.800;2023-07-31T09:21:04;21.50;99.90
20035;DHT22;10178;48.034;9.800;2023-07-31T09:23:44;21.60;99.90
20035;DHT22;10178;48.034;9.800;2023-07-31T09:26:10;21.70;99.90
20035;DHT22;10178;48.034;9.800;2023-07-31T09:28:36;21.90;99.90
20035;DHT22;10178;48.034;9.800;2023-07-31T09:31:02;21.70;99.90
20035;DHT22;10178;48.034;9.800;2023-07-31T09:33:27;21.50;99.90
20035;DHT22;10178;48.034;9.800;2023-07-31T09:35:53;21.40;99.90
20035;DHT22;10178;48.034;9.800;2023-07-31T09:38:19;21.40;99.90
20035;DHT22;10178;48.034;9.800;2023-07-31T09:40:48;21.50;99.90
20035;DHT22;10178;48.034;9.800;2023-07-31T09:43:21;21.40;99.90
20035;DHT22;10178;48.034;9.800;2023-07-31T09:45:47;21.40;99.90
20035;DHT22;10178;48.034;9.800;2023-07-31T09:48:15;21.30;99.90
20035;DHT22;10178;48.034;9.800;2023-07-31T09:50:48;21.30;99.90
20035;DHT22;10178;48.034;9.800;2023-07-31T09:53:15;21.40;99.90
20035;DHT22;10178;48.034;9.800;2023-07-31T09:55:41;21.50;99.90
20035;DHT22;10178;48.034;9.800;2023-07-31T09:58:10;21.40;99.90
20035;DHT22;10178;48.034;9.800;2023-07-31T10:00:36;21.40;99.90
20035;DHT22;10178;48.034;9.800;2023-07-31T10:03:07;21.40;99.90
20035;DHT22;10178;48.034;9.800;2023-07-31T10:05:39;21.50;99.90
20035;DHT22;10178;48.034;9.800;2023-07-31T10:08:06;21.60;99.90
20035;DHT22;10178;48.034;9.800;2023-07-31T10:10:32;21.60;99.90
20035;DHT22;10178;48.034;9.800;2023-07-31T10:13:01;21.40;99.90
20035;DHT22;10178;48.034;9.800;2023-07-31T10:15:27;21.40;99.90
20035;DHT22;10178;48.034;9.800;2023-07-31T10:17:54;21.40;99.90
20035;DHT22;10178;48.034;9.800;2023-07-31T10:20:20;21.40;99.90
20035;DHT22;10178;48.034;9.800;2023-07-31T10:22:46;21.50;99.90
20035;DHT22;10178;48.034;9.800;2023-07-31T10:25:12;21.60;99.90
20035;DHT22;10178;48.034;9.800;2023-07-31T10:27:39;21.50;99.90
20035;DHT22;10178;48.034;9.800;2023-07-31T10:30:08;21.60;99.90
20035;DHT22;10178;48.034;9.800;2023-07-31T10:32:34;21.80;99.90
20035;DHT22;10178;48.034;9.800;2023-07-31T10:35:02;21.90;99.90
20035;DHT22;10178;48.034;9.800;2023-07-31T10:37:36;22.10;99.90
20035;DHT22;10178;48.034;9.800;2023-07-31T10:40:06;22.10;99.90
20035;DHT22;10178;48.034;9.800;2023-07-31T10:42:58;22.20;99.90
20035;DHT22;10178;48.034;9.800;2023-07-31T10:45:35;22.10;99.90
20035;DHT22;10178;48.034;9.800;2023-07-31T10:50:29;22.10;99.90
20035;DHT22;10178;48.034;9.800;2023-07-31T10:52:56;22.30;99.90
20035;DHT22;10178;48.034;9.800;2023-07-31T10:55:35;22.10;99.90
20035;DHT22;10178;48.034;9.800;2023-07-31T10:58:22;22.20;99.90
20035;DHT22;10178;48.034;9.800;2023-07-31T11:00:48;22.50;99.90
20035;DHT22;10178;48.034;9.800;2023-07-31T11:03:17;22.40;99.90
20035;DHT22;10178;48.034;9.800;2023-07-31T11:08:18;22.40;99.90
20035;DHT22;10178;48.034;9.800;2023-07-31T11:10:46;22.30;99.90
20035;DHT22;10178;48.034;9.800;2023-07-31T11:13:13;22.00;99.90
20035;DHT22;10178;48.034;9.800;2023-07-31T11:15:39;21.90;99.90
20035;DHT22;10178;48.034;9.800;2023-07-31T11:18:05;21.70;99.90
20035;DHT22;10178;48.034;9.800;2023-07-31T11:20:37;21.80;99.90
20035;DHT22;10178;48.034;9.800;2023-07-31T11:23:07;22.00;99.90
20035;DHT22;10178;48.034;9.800;2023-07-31T11:25:34;22.20;99.90
20035;DHT22;10178;48.034;9.800;2023-07-31T11:30:29;22.30;99.90
20035;DHT22;10178;48.034;9.800;2023-07-31T11:32:55;22.30;99.90
20035;DHT22;10178;48.034;9.800;2023-07-31T11:35:21;22.40;99.90
20035;DHT22;10178;48.034;9.800;2023-07-31T11:37:47;22.50;99.90
20035;DHT22;10178;48.034;9.800;2023-07-31T11:40:14;22.60;99.90
20035;DHT22;10178;48.034;9.800;2023-07-31T11:42:40;22.70;99.90
20035;DHT22;10178;48.034;9.800;2023-07-31T11:45:07;22.60;99.90
20035;DHT22;10178;48.034;9.800;2023-07-31T11:47:34;22.60;99.90
20035;DHT22;10178;48.034;9.800;2023-07-31T11:50:01;22.70;99.90
20035;DHT22;10178;48.034;9.800;2023-07-31T11:52:34;22.90;99.90
20035;DHT22;10178;48.034;9.800;2023-07-31T11:55:04;22.90;99.90
20035;DHT22;10178;48.034;9.800;2023-07-31T11:57:30;23.00;99.90
20035;DHT22;10178;48.034;9.800;2023-07-31T11:59:56;23.00;99.90
20035;DHT22;10178;48.034;9.800;2023-07-31T12:02:23;23.10;99.90
20035;DHT22;10178;48.034;9.800;2023-07-31T12:04:49;23.00;99.90
20035;DHT22;10178;48.034;9.800;2023-07-31T12:07:15;22.80;99.90
20035;DHT22;10178;48.034;9.800;2023-07-31T12:09:55;22.80;99.90
20035;DHT22;10178;48.034;9.800;2023-07-31T12:12:23;22.70;99.90
20035;DHT22;10178;48.034;9.800;2023-07-31T12:14:49;22.60;99.90
20035;DHT22;10178;48.034;9.800;2023-07-31T12:17:16;22.70;99.90
20035;DHT22;10178;48.034;9.800;2023-07-31T12:19:42;22.60;99.90
20035;DHT22;10178;48.034;9.800;2023-07-31T12:22:14;22.60;99.90
20035;DHT22;10178;48.034;9.800;2023-07-31T12:24:42;22.60;99.90
20035;DHT22;10178;48.034;9.800;2023-07-31T12:27:14;22.70;99.90
20035;DHT22;10178;48.034;9.800;2023-07-31T12:29:42;22.70;99.90
20035;DHT22;10178;48.034;9.800;2023-07-31T12:32:24;22.80;99.90
20035;DHT22;10178;48.034;9.800;2023-07-31T12:34:50;22.90;99.90
20035;DHT22;10178;48.034;9.800;2023-07-31T12:37:16;22.90;99.90
20035;DHT22;10178;48.034;9.800;2023-07-31T12:39:42;22.80;99.90
20035;DHT22;10178;48.034;9.800;2023-07-31T12:42:08;22.80;99.90
20035;DHT22;10178;48.034;9.800;2023-07-31T12:44:33;22.80;99.90
20035;DHT22;10178;48.034;9.800;2023-07-31T12:46:59;22.90;99.90
20035;DHT22;10178;48.034;9.800;2023-07-31T12:49:24;23.00;99.90
20035;DHT22;10178;48.034;9.800;2023-07-31T12:51:50;23.00;99.90
20035;DHT22;10178;48.034;9.800;2023-07-31T12:54:16;22.90;99.90
20035;DHT22;10178;48.034;9.800;2023-07-31T12:56:41;22.80;99.90
20035;DHT22;10178;48.034;9.800;2023-07-31T12:59:07;22.70;99.90
20035;DHT22;10178;48.034;9.800;2023-07-31T13:01:33;22.50;99.90
20035;DHT22;10178;48.034;9.800;2023-07-31T13:03:58;22.50;99.90
20035;DHT22;10178;48.034;9.800;2023-07-31T13:06:25;22.60;99.90
20035;DHT22;10178;48.034;9.800;2023-07-31T13:08:51;22.70;99.90
20035;DHT22;10178;48.034;9.800;2023-07-31T13:11:17;22.80;99.90
20035;DHT22;10178;48.034;9.800;2023-07-31T13:13:42;22.80;99.90
20035;DHT22;10178;48.034;9.800;2023-07-31T13:16:08;22.90;99.90
20035;DHT22;10178;48.034;9.800;2023-07-31T13:18:33;22.80;99.90
20035;DHT22;10178;48.034;9.800;2023-07-31T13:20:59;22.80;99.90
20035;DHT22;10178;48.034;9.800;2023-07-31T13:23:24;22.80;99.90
20035;DHT22;10178;48.034;9.800;2023-07-31T13:25:50;22.70;99.90
20035;DHT22;10178;48.034;9.800;2023-07-31T13:28:16;22.60;99.90
20035;DHT22;10178;48.034;9.800;2023-07-31T13:30:41;22.60;99.90
20035;DHT22;10178;48.034;9.800;2023-07-31T13:33:07;22.40;99.90
20035;DHT22;10178;48.034;9.800;2023-07-31T13:35:32;22.40;99.90
20035;DHT22;10178;48.034;9.800;2023-07-31T13:37:58;22.40;99.90
20035;DHT22;10178;48.034;9.800;2023-07-31T13:40:23;22.40;99.90
20035;DHT22;10178;48.034;9.800;2023-07-31T13:42:49;22.50;99.90
20035;DHT22;10178;48.034;9.800;2023-07-31T13:45:15;22.40;99.90
20035;DHT22;10178;48.034;9.800;2023-07-31T13:47:40;22.40;99.90
20035;DHT22;10178;48.034;9.800;2023-07-31T13:50:06;22.30;99.90
20035;DHT22;10178;48.034;9.800;2023-07-31T13:52:32;22.30;99.90
20035;DHT22;10178;48.034;9.800;2023-07-31T13:54:57;22.20;99.90
20035;DHT22;10178;48.034;9.800;2023-07-31T13:57:23;22.10;99.90
20035;DHT22;10178;48.034;9.800;2023-07-31T13:59:49;22.00;99.90
20035;DHT22;10178;48.034;9.800;2023-07-31T14:02:14;21.90;99.90
20035;DHT22;10178;48.034;9.800;2023-07-31T14:04:40;21.80;99.90
20035;DHT22;10178;48.034;9.800;2023-07-31T14:07:06;21.70;99.90
20035;DHT22;10178;48.034;9.800;2023-07-31T14:09:32;21.90;99.90
20035;DHT22;10178;48.034;9.800;2023-07-31T14:11:57;21.90;99.90
20035;DHT22;10178;48.034;9.800;2023-07-31T14:14:23;21.90;99.90
20035;DHT22;10178;48.034;9.800;2023-07-31T14:16:49;21.90;99.90
20035;DHT22;10178;48.034;9.800;2023-07-31T14:19:14;21.90;99.90
20035;DHT22;10178;48.034;9.800;2023-07-31T14:21:40;21.90;99.90
20035;DHT22;10178;48.034;9.800;2023-07-31T14:24:06;21.80;99.90
20035;DHT22;10178;48.034;9.800;2023-07-31T14:26:31;21.90;99.90
20035;DHT22;10178;48.034;9.800;2023-07-31T14:28:57;22.10;99.90
20035;DHT22;10178;48.034;9.800;2023-07-31T14:31:23;22.30;99.90
20035;DHT22;10178;48.034;9.800;2023-07-31T14:33:49;22.40;99.90
20035;DHT22;10178;48.034;9.800;2023-07-31T14:36:14;22.50;99.90
20035;DHT22;10178;48.034;9.800;2023-07-31T14:38:40;22.50;99.90
20035;DHT22;10178;48.034;9.800;2023-07-31T14:41:05;22.50;99.90
20035;DHT22;10178;48.034;9.800;2023-07-31T14:43:31;22.60;99.90
20035;DHT22;10178;48.034;9.800;2023-07-31T14:45:57;22.50;99.90
20035;DHT22;10178;48.034;9.800;2023-07-31T14:48:25;22.60;99.90
20035;DHT22;10178;48.034;9.800;2023-07-31T14:50:51;22.60;99.90
20035;DHT22;10178;48.034;9.800;2023-07-31T14:53:17;22.60;99.90
20035;DHT22;10178;48.034;9.800;2023-07-31T14:55:42;22.50;99.90
20035;DHT22;10178;48.034;9.800;2023-07-31T14:58:08;22.50;99.90
20035;DHT22;10178;48.034;9.800;2023-07-31T15:00:36;22.40;99.90
20035;DHT22;10178;48.034;9.800;2023-07-31T15:03:02;22.60;99.90
20035;DHT22;10178;48.034;9.800;2023-07-31T15:05:28;22.70;99.90
20035;DHT22;10178;48.034;9.800;2023-07-31T15:07:54;22.70;99.90
20035;DHT22;10178;48.034;9.800;2023-07-31T15:10:19;22.90;99.90
20035;DHT22;10178;48.034;9.800;2023-07-31T15:12:45;23.00;99.90
20035;DHT22;10178;48.034;9.800;2023-07-31T15:15:11;23.10;99.90
20035;DHT22;10178;48.034;9.800;2023-07-31T15:17:37;23.20;99.90
20035;DHT22;10178;48.034;9.800;2023-07-31T15:20:03;23.30;99.90
20035;DHT22;10178;48.034;9.800;2023-07-31T15:22:29;23.70;99.90
20035;DHT22;10178;48.034;9.800;2023-07-31T15:24:55;23.80;99.90
20035;DHT22;10178;48.034;9.800;2023-07-31T15:27:21;24.00;99.90
20035;DHT22;10178;48.034;9.800;2023-07-31T15:29:49;23.80;99.90
20035;DHT22;10178;48.034;9.800;2023-07-31T15:32:14;24.10;99.90
20035;DHT22;10178;48.034;9.800;2023-07-31T15:34:40;23.80;99.90
20035;DHT22;10178;48.034;9.800;2023-07-31T15:37:06;23.20;99.90
20035;DHT22;10178;48.034;9.800;2023-07-31T15:39:31;23.30;99.90
20035;DHT22;10178;48.034;9.800;2023-07-31T15:41:57;23.50;99.90